sensor_id;sensor_type;location;lat;lon;timestamp;pressure;altitude;pressure_sealevel;temperature;humidity
77003;BME280;65939;50.060;14.288;2023-06-01T00:00:30;97515.97;;;16.03;55.68
77003;BME280;65939;50.060;14.288;2023-06-01T00:02:31;97515.81;;;15.90;55.55
77003;BME280;65939;50.060;14.288;2023-06-01T00:04:32;97514.84;;;15.76;56.52
77003;BME280;65939;50.060;14.288;2023-06-01T00:06:33;97516.44;;;15.62;56.89
77003;BME280;65939;50.060;14.288;2023-06-01T00:08:34;97511.44;;;15.52;57.40
77003;BME280;65939;50.060;14.288;2023-06-01T00:10:34;97516.63;;;15.46;57.24
77003;BME280;65939;50.060;14.288;2023-06-01T00:12:35;97514.19;;;15.44;57.23
77003;BME280;65939;50.060;14.288;2023-06-01T00:14:36;97506.09;;;15.46;57.33
77003;BME280;65939;50.060;14.288;2023-06-01T00:16:37;97507.72;;;15.47;57.36
77003;BME280;65939;50.060;14.288;2023-06-01T00:18:37;97508.38;;;15.49;57.49
77003;BME280;65939;50.060;14.288;2023-06-01T00:20:38;97503.72;;;15.51;57.48
77003;BME280;65939;50.060;14.288;2023-06-01T00:22:39;97503.72;;;15.51;57.60
77003;BME280;65939;50.060;14.288;2023-06-01T00:24:40;97504.56;;;15.51;57.65
77003;BME280;65939;50.060;14.288;2023-06-01T00:26:41;97513.28;;;15.52;57.91
77003;BME280;65939;50.060;14.288;2023-06-01T00:28:41;97499.09;;;15.53;58.37
77003;BME280;65939;50.060;14.288;2023-06-01T00:30:42;97500.72;;;15.54;58.84
77003;BME280;65939;50.060;14.288;2023-06-01T00:32:43;97504.16;;;15.54;58.99
77003;BME280;65939;50.060;14.288;2023-06-01T00:34:43;97500.56;;;15.55;58.37
77003;BME280;65939;50.060;14.288;2023-06-01T00:36:44;97503.00;;;15.57;58.61
77003;BME280;65939;50.060;14.288;2023-06-01T00:38:45;97495.75;;;15.59;58.52
77003;BME280;65939;50.060;14.288;2023-06-01T00:40:45;97494.75;;;15.60;58.56
77003;BME280;65939;50.060;14.288;2023-06-01T00:42:50;97483.22;;;15.61;58.22
77003;BME280;65939;50.060;14.288;2023-06-01T00:44:51;97493.38;;;15.64;58.77
77003;BME280;65939;50.060;14.288;2023-06-01T00:46:54;97488.13;;;15.64;58.17
77003;BME280;65939;50.060;14.288;2023-06-01T00:48:54;97490.63;;;15.66;59.20
77003;BME280;65939;50.060;14.288;2023-06-01T00:50:56;97487.97;;;15.66;58.94
77003;BME280;65939;50.060;14.288;2023-06-01T00:53:00;97494.06;;;15.66;59.13
77003;BME280;65939;50.060;14.288;2023-06-01T00:55:04;97487.97;;;15.66;58.31
77003;BME280;65939;50.060;14.288;2023-06-01T00:57:05;97489.13;;;15.63;59.61
77003;BME280;65939;50.060;14.288;2023-06-01T00:59:07;97488.66;;;15.60;58.99
77003;BME280;65939;50.060;14.288;2023-06-01T01:01:08;97490.19;;;15.54;59.02
77003;BME280;65939;50.060;14.288;2023-06-01T01:03:19;97483.22;;;15.46;59.81
77003;BME280;65939;50.060;14.288;2023-06-01T01:05:22;97490.03;;;15.41;59.42
77003;BME280;65939;50.060;14.288;2023-06-01T01:12:26;97486.91;;;15.22;60.30
77003;BME280;65939;50.060;14.288;2023-06-01T01:14:29;97487.81;;;15.15;61.07
77003;BME280;65939;50.060;14.288;2023-06-01T01:16:44;97485.28;;;15.06;60.91
77003;BME280;65939;50.060;14.288;2023-06-01T01:21:09;97479.81;;;14.93;61.14
77003;BME280;65939;50.060;14.288;2023-06-01T01:30:46;97478.47;;;14.59;62.36
77003;BME280;65939;50.060;14.288;2023-06-01T01:32:49;97475.53;;;14.54;62.38
77003;BME280;65939;50.060;14.288;2023-06-01T01:34:52;97477.03;;;14.49;62.44
77003;BME280;65939;50.060;14.288;2023-06-01T01:36:54;97484.44;;;14.45;62.62
77003;BME280;65939;50.060;14.288;2023-06-01T01:38:56;97482.31;;;14.41;62.19
77003;BME280;65939;50.060;14.288;2023-06-01T01:40:56;97481.22;;;14.35;62.49
77003;BME280;65939;50.060;14.288;2023-06-01T01:42:58;97484.56;;;14.29;63.17
77003;BME280;65939;50.060;14.288;2023-06-01T01:44:59;97483.44;;;14.23;62.95
77003;BME280;65939;50.060;14.288;2023-06-01T01:49:25;97478.41;;;14.13;63.08
77003;BME280;65939;50.060;14.288;2023-06-01T01:52:10;97478.94;;;14.09;64.12
77003;BME280;65939;50.060;14.288;2023-06-01T01:54:13;97478.47;;;14.05;63.44
77003;BME280;65939;50.060;14.288;2023-06-01T01:56:15;97476.19;;;14.02;63.64
77003;BME280;65939;50.060;14.288;2023-06-01T01:58:17;97477.34;;;14.00;64.19
77003;BME280;65939;50.060;14.288;2023-06-01T02:00:19;97470.47;;;13.99;63.63
77003;BME280;65939;50.060;14.288;2023-06-01T02:02:20;97476.69;;;13.98;64.20
77003;BME280;65939;50.060;14.288;2023-06-01T02:04:21;97470.63;;;13.97;64.37
77003;BME280;65939;50.060;14.288;2023-06-01T02:06:22;97471.16;;;13.93;64.42
77003;BME280;65939;50.060;14.288;2023-06-01T02:08:22;97467.22;;;13.88;64.21
77003;BME280;65939;50.060;14.288;2023-06-01T02:10:23;97462.13;;;13.87;64.32
77003;BME280;65939;50.060;14.288;2023-06-01T02:12:24;97466.22;;;13.89;64.51
77003;BME280;65939;50.060;14.288;2023-06-01T02:14:25;97459.03;;;13.92;64.36
77003;BME280;65939;50.060;14.288;2023-06-01T02:16:26;97458.69;;;13.95;64.70
77003;BME280;65939;50.060;14.288;2023-06-01T02:18:26;97458.97;;;14.00;64.64
77003;BME280;65939;50.060;14.288;2023-06-01T02:20:30;97454.00;;;14.05;64.11
77003;BME280;65939;50.060;14.288;2023-06-01T02:22:30;97460.56;;;14.09;63.99
77003;BME280;65939;50.060;14.288;2023-06-01T02:24:31;97454.94;;;14.12;64.46
77003;BME280;65939;50.060;14.288;2023-06-01T02:26:33;97460.84;;;14.14;64.26
77003;BME280;65939;50.060;14.288;2023-06-01T02:28:33;97458.56;;;14.11;64.07
77003;BME280;65939;50.060;14.288;2023-06-01T02:30:36;97467.13;;;14.05;64.13
77003;BME280;65939;50.060;14.288;2023-06-01T02:32:37;97460.94;;;13.98;64.24
77003;BME280;65939;50.060;14.288;2023-06-01T02:34:38;97456.56;;;13.90;64.28
77003;BME280;65939;50.060;14.288;2023-06-01T02:36:38;97460.69;;;13.84;64.32
77003;BME280;65939;50.060;14.288;2023-06-01T02:38:39;97463.00;;;13.79;64.16
77003;BME280;65939;50.060;14.288;2023-06-01T02:40:40;97453.50;;;13.78;64.62
77003;BME280;65939;50.060;14.288;2023-06-01T02:42:40;97457.94;;;13.78;64.66
77003;BME280;65939;50.060;14.288;2023-06-01T02:44:41;97457.13;;;13.77;65.22
77003;BME280;65939;50.060;14.288;2023-06-01T02:46:42;97453.50;;;13.78;65.54
77003;BME280;65939;50.060;14.288;2023-06-01T02:48:43;97454.31;;;13.79;65.39
77003;BME280;65939;50.060;14.288;2023-06-01T02:50:44;97457.75;;;13.79;65.13
77003;BME280;65939;50.060;14.288;2023-06-01T02:52:45;97455.94;;;13.80;65.26
77003;BME280;65939;50.060;14.288;2023-06-01T02:54:46;97457.75;;;13.79;65.77
77003;BME280;65939;50.060;14.288;2023-06-01T02:56:46;97457.13;;;13.77;65.09
77003;BME280;65939;50.060;14.288;2023-06-01T02:58:47;97456.66;;;13.74;64.87
77003;BME280;65939;50.060;14.288;2023-06-01T03:00:48;97462.25;;;13.71;65.47
77003;BME280;65939;50.060;14.288;2023-06-01T03:02:49;97453.06;;;13.67;65.55
77003;BME280;65939;50.060;14.288;2023-06-01T03:04:49;97449.97;;;13.63;65.78
77003;BME280;65939;50.060;14.288;2023-06-01T03:06:50;97462.78;;;13.58;66.23
77003;BME280;65939;50.060;14.288;2023-06-01T03:08:51;97457.84;;;13.55;65.70
77003;BME280;65939;50.060;14.288;2023-06-01T03:10:52;97444.94;;;13.53;65.91
77003;BME280;65939;50.060;14.288;2023-06-01T03:12:53;97451.66;;;13.56;66.18
77003;BME280;65939;50.060;14.288;2023-06-01T03:14:54;97450.94;;;13.62;65.89
77003;BME280;65939;50.060;14.288;2023-06-01T03:16:54;97447.97;;;13.65;65.91
77003;BME280;65939;50.060;14.288;2023-06-01T03:18:55;97443.22;;;13.69;66.37
77003;BME280;65939;50.060;14.288;2023-06-01T03:20:56;97444.50;;;13.73;65.58
77003;BME280;65939;50.060;14.288;2023-06-01T03:22:56;97446.63;;;13.77;66.26
77003;BME280;65939;50.060;14.288;2023-06-01T03:24:57;97447.91;;;13.81;65.32
77003;BME280;65939;50.060;14.288;2023-06-01T03:26:58;97446.56;;;13.85;66.01
77003;BME280;65939;50.060;14.288;2023-06-01T03:28:59;97450.50;;;13.89;66.00
77003;BME280;65939;50.060;14.288;2023-06-01T03:31:00;97443.28;;;13.92;65.26
77003;BME280;65939;50.060;14.288;2023-06-01T03:33:02;97448.00;;;13.96;65.41
77003;BME280;65939;50.060;14.288;2023-06-01T03:35:04;97443.88;;;14.02;65.42
77003;BME280;65939;50.060;14.288;2023-06-01T03:37:07;97449.41;;;14.07;64.96
77003;BME280;65939;50.060;14.288;2023-06-01T03:39:08;97443.47;;;14.13;64.53
77003;BME280;65939;50.060;14.288;2023-06-01T03:41:08;97437.69;;;14.18;64.88
77003;BME280;65939;50.060;14.288;2023-06-01T03:43:09;97430.94;;;14.23;64.61
77003;BME280;65939;50.060;14.288;2023-06-01T03:45:11;97438.44;;;14.26;65.26
77003;BME280;65939;50.060;14.288;2023-06-01T03:47:12;97445.16;;;14.29;65.59
77003;BME280;65939;50.060;14.288;2023-06-01T03:49:14;97441.72;;;14.28;65.49
77003;BME280;65939;50.060;14.288;2023-06-01T03:51:15;97437.47;;;14.27;65.82
77003;BME280;65939;50.060;14.288;2023-06-01T03:53:15;97432.22;;;14.27;65.57
77003;BME280;65939;50.060;14.288;2023-06-01T03:55:16;97425.97;;;14.28;65.82
77003;BME280;65939;50.060;14.288;2023-06-01T03:57:17;97425.78;;;14.30;65.37
77003;BME280;65939;50.060;14.288;2023-06-01T03:59:18;97423.78;;;14.32;65.12
77003;BME280;65939;50.060;14.288;2023-06-01T04:01:18;97423.44;;;14.35;65.39
77003;BME280;65939;50.060;14.288;2023-06-01T04:03:20;97433.59;;;14.38;65.60
77003;BME280;65939;50.060;14.288;2023-06-01T04:05:22;97421.75;;;14.42;65.59
77003;BME280;65939;50.060;14.288;2023-06-01T04:07:23;97422.22;;;14.46;65.45
77003;BME280;65939;50.060;14.288;2023-06-01T04:09:23;97429.44;;;14.52;65.77
77003;BME280;65939;50.060;14.288;2023-06-01T04:11:24;97433.94;;;14.58;65.82
77003;BME280;65939;50.060;14.288;2023-06-01T04:13:25;97434.88;;;14.65;65.51
77003;BME280;65939;50.060;14.288;2023-06-01T04:15:25;97433.56;;;14.69;65.99
77003;BME280;65939;50.060;14.288;2023-06-01T04:17:26;97433.63;;;14.76;65.69
77003;BME280;65939;50.060;14.288;2023-06-01T04:19:27;97432.13;;;14.81;65.94
77003;BME280;65939;50.060;14.288;2023-06-01T04:21:27;97439.28;;;14.88;66.42
77003;BME280;65939;50.060;14.288;2023-06-01T04:23:28;97431.50;;;14.94;66.00
77003;BME280;65939;50.060;14.288;2023-06-01T04:25:29;97430.41;;;15.03;66.30
77003;BME280;65939;50.060;14.288;2023-06-01T04:27:30;97428.69;;;15.11;66.31
77003;BME280;65939;50.060;14.288;2023-06-01T04:29:31;97432.25;;;15.18;65.47
77003;BME280;65939;50.060;14.288;2023-06-01T04:31:33;97433.78;;;15.27;65.74
77003;BME280;65939;50.060;14.288;2023-06-01T04:33:34;97429.44;;;15.34;64.94
77003;BME280;65939;50.060;14.288;2023-06-01T04:35:35;97439.03;;;15.42;65.75
77003;BME280;65939;50.060;14.288;2023-06-01T04:37:38;97437.13;;;15.50;65.65
77003;BME280;65939;50.060;14.288;2023-06-01T04:39:42;97438.47;;;15.61;65.50
77003;BME280;65939;50.060;14.288;2023-06-01T04:41:46;97437.59;;;15.69;65.18
77003;BME280;65939;50.060;14.288;2023-06-01T04:43:51;97440.94;;;15.77;64.74
77003;BME280;65939;50.060;14.288;2023-06-01T04:45:52;97432.91;;;15.86;64.44
77003;BME280;65939;50.060;14.288;2023-06-01T04:47:53;97435.25;;;15.95;64.58
77003;BME280;65939;50.060;14.288;2023-06-01T04:49:58;97437.59;;;16.05;65.44
77003;BME280;65939;50.060;14.288;2023-06-01T04:51:59;97436.28;;;16.16;65.69
77003;BME280;65939;50.060;14.288;2023-06-01T04:54:00;97431.34;;;16.27;65.26
77003;BME280;65939;50.060;14.288;2023-06-01T04:56:02;97430.22;;;16.37;65.21
77003;BME280;65939;50.060;14.288;2023-06-01T04:58:03;97434.53;;;16.44;64.20
77003;BME280;65939;50.060;14.288;2023-06-01T05:00:06;97443.31;;;16.51;63.69
77003;BME280;65939;50.060;14.288;2023-06-01T05:02:11;97441.56;;;16.59;64.45
77003;BME280;65939;50.060;14.288;2023-06-01T05:04:12;97442.81;;;16.63;64.23
77003;BME280;65939;50.060;14.288;2023-06-01T05:06:13;97442.44;;;16.66;64.05
77003;BME280;65939;50.060;14.288;2023-06-01T05:08:14;97436.97;;;16.67;64.26
77003;BME280;65939;50.060;14.288;2023-06-01T05:10:15;97434.97;;;16.69;63.56
77003;BME280;65939;50.060;14.288;2023-06-01T05:12:16;97438.19;;;16.71;63.68
77003;BME280;65939;50.060;14.288;2023-06-01T05:14:17;97432.59;;;16.74;63.83
77003;BME280;65939;50.060;14.288;2023-06-01T05:16:18;97439.94;;;16.79;63.21
77003;BME280;65939;50.060;14.288;2023-06-01T05:18:18;97431.44;;;16.84;63.53
77003;BME280;65939;50.060;14.288;2023-06-01T05:20:19;97429.84;;;16.89;63.18
77003;BME280;65939;50.060;14.288;2023-06-01T05:22:20;97426.66;;;16.94;63.19
77003;BME280;65939;50.060;14.288;2023-06-01T05:24:21;97436.25;;;17.02;62.92
77003;BME280;65939;50.060;14.288;2023-06-01T05:26:21;97433.28;;;17.11;63.43
77003;BME280;65939;50.060;14.288;2023-06-01T05:28:22;97432.50;;;17.24;62.92
77003;BME280;65939;50.060;14.288;2023-06-01T05:30:23;97427.50;;;17.36;64.08
77003;BME280;65939;50.060;14.288;2023-06-01T05:32:24;97427.56;;;17.49;63.05
77003;BME280;65939;50.060;14.288;2023-06-01T05:34:24;97426.00;;;17.61;63.15
77003;BME280;65939;50.060;14.288;2023-06-01T05:36:25;97419.34;;;17.72;63.53
77003;BME280;65939;50.060;14.288;2023-06-01T05:38:26;97418.19;;;17.81;62.86
77003;BME280;65939;50.060;14.288;2023-06-01T05:40:27;97418.22;;;17.88;62.41
77003;BME280;65939;50.060;14.288;2023-06-01T05:42:27;97409.09;;;17.97;62.72
77003;BME280;65939;50.060;14.288;2023-06-01T05:44:28;97409.31;;;18.09;62.44
77003;BME280;65939;50.060;14.288;2023-06-01T05:46:29;97412.19;;;18.21;61.57
77003;BME280;65939;50.060;14.288;2023-06-01T05:48:30;97414.22;;;18.32;61.63
77003;BME280;65939;50.060;14.288;2023-06-01T05:50:30;97416.06;;;18.38;61.00
77003;BME280;65939;50.060;14.288;2023-06-01T05:52:31;97418.72;;;18.45;61.21
77003;BME280;65939;50.060;14.288;2023-06-01T05:54:32;97418.50;;;18.53;61.46
77003;BME280;65939;50.060;14.288;2023-06-01T05:56:33;97421.16;;;18.59;60.01
77003;BME280;65939;50.060;14.288;2023-06-01T05:58:33;97416.91;;;18.65;59.83
77003;BME280;65939;50.060;14.288;2023-06-01T06:00:34;97412.47;;;18.72;59.54
77003;BME280;65939;50.060;14.288;2023-06-01T06:02:36;97408.97;;;18.78;60.18
77003;BME280;65939;50.060;14.288;2023-06-01T06:04:37;97415.09;;;18.85;60.49
77003;BME280;65939;50.060;14.288;2023-06-01T06:06:37;97417.94;;;18.90;60.95
77003;BME280;65939;50.060;14.288;2023-06-01T06:08:38;97416.31;;;18.96;61.05
77003;BME280;65939;50.060;14.288;2023-06-01T06:10:39;97415.88;;;18.99;58.97
77003;BME280;65939;50.060;14.288;2023-06-01T06:12:40;97424.03;;;19.04;58.80
77003;BME280;65939;50.060;14.288;2023-06-01T06:14:41;97417.53;;;19.07;58.39
77003;BME280;65939;50.060;14.288;2023-06-01T06:16:41;97421.56;;;19.09;58.80
77003;BME280;65939;50.060;14.288;2023-06-01T06:18:42;97419.53;;;19.11;59.03
77003;BME280;65939;50.060;14.288;2023-06-01T06:20:43;97422.38;;;19.17;58.13
77003;BME280;65939;50.060;14.288;2023-06-01T06:22:43;97421.13;;;19.26;58.72
77003;BME280;65939;50.060;14.288;2023-06-01T06:24:44;97421.53;;;19.29;57.97
77003;BME280;65939;50.060;14.288;2023-06-01T06:26:45;97417.44;;;19.33;57.58
77003;BME280;65939;50.060;14.288;2023-06-01T06:28:46;97420.06;;;19.40;58.11
77003;BME280;65939;50.060;14.288;2023-06-01T06:30:46;97418.22;;;19.47;57.24
77003;BME280;65939;50.060;14.288;2023-06-01T06:32:47;97417.41;;;19.53;58.46
77003;BME280;65939;50.060;14.288;2023-06-01T06:34:48;97417.34;;;19.60;57.38
77003;BME280;65939;50.060;14.288;2023-06-01T06:36:49;97425.28;;;19.67;57.53
77003;BME280;65939;50.060;14.288;2023-06-01T06:38:49;97416.53;;;19.66;56.31
77003;BME280;65939;50.060;14.288;2023-06-01T06:40:50;97419.38;;;19.71;56.33
77003;BME280;65939;50.060;14.288;2023-06-01T06:42:51;97421.19;;;19.77;56.50
77003;BME280;65939;50.060;14.288;2023-06-01T06:44:52;97423.81;;;19.84;57.13
77003;BME280;65939;50.060;14.288;2023-06-01T06:46:53;97417.88;;;19.89;56.58
77003;BME280;65939;50.060;14.288;2023-06-01T06:48:54;97414.81;;;19.85;56.89
77003;BME280;65939;50.060;14.288;2023-06-01T06:50:56;97420.13;;;19.85;56.61
77003;BME280;65939;50.060;14.288;2023-06-01T06:52:56;97425.22;;;19.87;57.66
77003;BME280;65939;50.060;14.288;2023-06-01T06:54:57;97419.69;;;19.88;57.90
77003;BME280;65939;50.060;14.288;2023-06-01T06:56:57;97419.69;;;19.88;57.99
77003;BME280;65939;50.060;14.288;2023-06-01T06:58:59;97417.25;;;19.93;58.57
77003;BME280;65939;50.060;14.288;2023-06-01T07:01:00;97422.50;;;20.00;58.26
77003;BME280;65939;50.060;14.288;2023-06-01T07:03:05;97415.53;;;20.05;58.44
77003;BME280;65939;50.060;14.288;2023-06-01T07:05:06;97423.69;;;20.11;58.30
77003;BME280;65939;50.060;14.288;2023-06-01T07:07:08;97419.56;;;20.15;57.66
77003;BME280;65939;50.060;14.288;2023-06-01T07:09:09;97426.28;;;20.17;58.06
77003;BME280;65939;50.060;14.288;2023-06-01T07:11:10;97421.38;;;20.21;58.69
77003;BME280;65939;50.060;14.288;2023-06-01T07:13:10;97426.00;;;20.32;57.85
77003;BME280;65939;50.060;14.288;2023-06-01T07:15:11;97417.72;;;20.47;57.76
77003;BME280;65939;50.060;14.288;2023-06-01T07:17:12;97427.81;;;20.63;56.86
77003;BME280;65939;50.060;14.288;2023-06-01T07:19:12;97429.56;;;20.76;57.03
77003;BME280;65939;50.060;14.288;2023-06-01T07:21:13;97421.63;;;20.94;56.70
77003;BME280;65939;50.060;14.288;2023-06-01T07:23:15;97416.97;;;21.15;56.85
77003;BME280;65939;50.060;14.288;2023-06-01T07:25:16;97424.53;;;21.36;57.32
77003;BME280;65939;50.060;14.288;2023-06-01T07:27:17;97426.59;;;21.52;56.27
77003;BME280;65939;50.060;14.288;2023-06-01T07:29:18;97426.66;;;21.64;55.96
77003;BME280;65939;50.060;14.288;2023-06-01T07:31:20;97420.59;;;21.75;55.82
77003;BME280;65939;50.060;14.288;2023-06-01T07:33:21;97420.50;;;21.82;56.13
77003;BME280;65939;50.060;14.288;2023-06-01T07:35:23;97419.47;;;21.83;55.63
77003;BME280;65939;50.060;14.288;2023-06-01T07:37:24;97407.72;;;21.91;55.14
77003;BME280;65939;50.060;14.288;2023-06-01T07:39:27;97412.06;;;22.04;55.88
77003;BME280;65939;50.060;14.288;2023-06-01T07:41:28;97408.19;;;22.18;54.27
77003;BME280;65939;50.060;14.288;2023-06-01T07:43:29;97405.91;;;22.33;54.65
77003;BME280;65939;50.060;14.288;2023-06-01T07:45:30;97398.34;;;22.49;55.04
77003;BME280;65939;50.060;14.288;2023-06-01T07:47:30;97403.31;;;22.57;54.95
77003;BME280;65939;50.060;14.288;2023-06-01T07:49:33;97402.88;;;22.71;54.82
77003;BME280;65939;50.060;14.288;2023-06-01T07:51:36;97406.13;;;22.85;54.30
77003;BME280;65939;50.060;14.288;2023-06-01T07:53:37;97404.06;;;22.99;53.71
77003;BME280;65939;50.060;14.288;2023-06-01T07:55:38;97403.34;;;23.15;53.24
77003;BME280;65939;50.060;14.288;2023-06-01T07:57:38;97403.47;;;23.21;51.81
77003;BME280;65939;50.060;14.288;2023-06-01T07:59:40;97404.72;;;23.30;51.17
77003;BME280;65939;50.060;14.288;2023-06-01T08:03:43;97403.06;;;23.52;49.56
77003;BME280;65939;50.060;14.288;2023-06-01T08:05:44;97403.88;;;23.53;49.23
77003;BME280;65939;50.060;14.288;2023-06-01T08:07:45;97405.28;;;23.55;50.26
77003;BME280;65939;50.060;14.288;2023-06-01T08:09:49;97402.59;;;23.67;50.50
77003;BME280;65939;50.060;14.288;2023-06-01T08:11:50;97402.16;;;23.87;49.96
77003;BME280;65939;50.060;14.288;2023-06-01T08:13:51;97394.22;;;24.04;50.04
77003;BME280;65939;50.060;14.288;2023-06-01T08:15:52;97399.59;;;24.21;49.61
77003;BME280;65939;50.060;14.288;2023-06-01T08:17:56;97398.25;;;24.35;48.31
77003;BME280;65939;50.060;14.288;2023-06-01T08:19:57;97398.81;;;24.37;47.81
77003;BME280;65939;50.060;14.288;2023-06-01T08:21:58;97393.84;;;24.41;48.80
77003;BME280;65939;50.060;14.288;2023-06-01T08:23:59;97398.94;;;24.59;47.95
77003;BME280;65939;50.060;14.288;2023-06-01T08:26:00;97386.56;;;24.70;48.32
77003;BME280;65939;50.060;14.288;2023-06-01T08:28:00;97389.44;;;24.85;48.36
77003;BME280;65939;50.060;14.288;2023-06-01T08:30:01;97391.53;;;25.00;47.75
77003;BME280;65939;50.060;14.288;2023-06-01T08:32:03;97387.63;;;25.07;47.41
77003;BME280;65939;50.060;14.288;2023-06-01T08:34:04;97389.97;;;25.04;48.07
77003;BME280;65939;50.060;14.288;2023-06-01T08:36:05;97390.25;;;25.02;47.98
77003;BME280;65939;50.060;14.288;2023-06-01T08:38:06;97388.84;;;25.00;46.94
77003;BME280;65939;50.060;14.288;2023-06-01T08:40:07;97389.91;;;24.99;46.41
77003;BME280;65939;50.060;14.288;2023-06-01T08:44:37;97378.50;;;24.87;45.03
77003;BME280;65939;50.060;14.288;2023-06-01T08:46:41;97379.25;;;24.82;45.72
77003;BME280;65939;50.060;14.288;2023-06-01T08:48:43;97384.28;;;24.78;46.95
77003;BME280;65939;50.060;14.288;2023-06-01T08:50:48;97381.69;;;24.83;45.82
77003;BME280;65939;50.060;14.288;2023-06-01T08:52:52;97379.47;;;24.97;46.64
77003;BME280;65939;50.060;14.288;2023-06-01T08:54:58;97379.97;;;24.94;44.95
77003;BME280;65939;50.060;14.288;2023-06-01T08:57:00;97379.09;;;24.89;45.05
77003;BME280;65939;50.060;14.288;2023-06-01T08:59:02;97379.34;;;24.87;45.24
77003;BME280;65939;50.060;14.288;2023-06-01T09:01:03;97377.06;;;24.96;45.25
77003;BME280;65939;50.060;14.288;2023-06-01T09:03:04;97371.22;;;24.99;45.03
77003;BME280;65939;50.060;14.288;2023-06-01T09:05:07;97374.69;;;24.99;45.82
77003;BME280;65939;50.060;14.288;2023-06-01T09:07:08;97369.63;;;24.98;45.40
77003;BME280;65939;50.060;14.288;2023-06-01T09:09:08;97371.38;;;24.92;44.66
77003;BME280;65939;50.060;14.288;2023-06-01T09:11:13;97371.66;;;24.91;45.01
77003;BME280;65939;50.060;14.288;2023-06-01T09:13:33;97365.31;;;24.97;44.45
77003;BME280;65939;50.060;14.288;2023-06-01T09:15:34;97372.78;;;24.95;44.40
77003;BME280;65939;50.060;14.288;2023-06-01T09:17:35;97365.88;;;24.99;44.88
77003;BME280;65939;50.060;14.288;2023-06-01T09:19:43;97368.06;;;25.19;45.17
77003;BME280;65939;50.060;14.288;2023-06-01T09:21:57;97362.09;;;25.34;46.13
77003;BME280;65939;50.060;14.288;2023-06-01T09:24:17;97368.56;;;25.38;45.09
77003;BME280;65939;50.060;14.288;2023-06-01T09:26:26;97372.34;;;25.42;45.61
77003;BME280;65939;50.060;14.288;2023-06-01T09:28:27;97362.72;;;25.41;44.77
77003;BME280;65939;50.060;14.288;2023-06-01T09:30:40;97371.16;;;25.54;44.95
77003;BME280;65939;50.060;14.288;2023-06-01T09:32:41;97359.34;;;25.72;44.65
77003;BME280;65939;50.060;14.288;2023-06-01T09:34:44;97358.91;;;25.81;44.48
77003;BME280;65939;50.060;14.288;2023-06-01T09:36:50;97355.88;;;25.99;44.94
77003;BME280;65939;50.060;14.288;2023-06-01T09:39:02;97351.03;;;26.23;44.83
77003;BME280;65939;50.060;14.288;2023-06-01T09:41:03;97349.28;;;26.39;43.52
77003;BME280;65939;50.060;14.288;2023-06-01T09:43:20;97342.50;;;26.58;44.19
77003;BME280;65939;50.060;14.288;2023-06-01T09:45:22;97353.03;;;26.75;43.84
77003;BME280;65939;50.060;14.288;2023-06-01T09:47:28;97350.66;;;26.79;43.22
77003;BME280;65939;50.060;14.288;2023-06-01T09:51:31;97344.69;;;26.66;42.34
77003;BME280;65939;50.060;14.288;2023-06-01T09:53:41;97349.75;;;26.63;42.08
77003;BME280;65939;50.060;14.288;2023-06-01T09:55:59;97344.50;;;26.78;42.16
77003;BME280;65939;50.060;14.288;2023-06-01T09:58:20;97342.97;;;26.87;42.93
77003;BME280;65939;50.060;14.288;2023-06-01T10:00:23;97343.78;;;26.93;41.99
77003;BME280;65939;50.060;14.288;2023-06-01T10:02:24;97347.00;;;26.90;43.23
77003;BME280;65939;50.060;14.288;2023-06-01T10:04:27;97335.72;;;26.88;42.66
77003;BME280;65939;50.060;14.288;2023-06-01T10:06:35;97334.66;;;26.89;41.82
77003;BME280;65939;50.060;14.288;2023-06-01T10:08:41;97332.00;;;26.94;41.51
77003;BME280;65939;50.060;14.288;2023-06-01T10:10:47;97332.06;;;27.09;41.75
77003;BME280;65939;50.060;14.288;2023-06-01T10:12:48;97327.88;;;27.24;41.77
77003;BME280;65939;50.060;14.288;2023-06-01T10:14:50;97334.41;;;27.43;42.20
77003;BME280;65939;50.060;14.288;2023-06-01T10:16:53;97327.97;;;27.44;42.01
77003;BME280;65939;50.060;14.288;2023-06-01T10:18:54;97320.72;;;27.44;41.43
77003;BME280;65939;50.060;14.288;2023-06-01T10:20:55;97326.34;;;27.38;41.53
77003;BME280;65939;50.060;14.288;2023-06-01T10:22:57;97322.28;;;27.30;42.41
77003;BME280;65939;50.060;14.288;2023-06-01T10:25:00;97326.38;;;27.43;42.71
77003;BME280;65939;50.060;14.288;2023-06-01T10:27:26;97326.94;;;27.50;41.05
77003;BME280;65939;50.060;14.288;2023-06-01T10:29:30;97322.09;;;27.52;41.23
77003;BME280;65939;50.060;14.288;2023-06-01T10:31:41;97325.09;;;27.61;41.28
77003;BME280;65939;50.060;14.288;2023-06-01T10:33:53;97318.63;;;27.62;40.72
77003;BME280;65939;50.060;14.288;2023-06-01T10:35:54;97319.44;;;27.57;40.31
77003;BME280;65939;50.060;14.288;2023-06-01T10:46:40;97310.00;;;27.44;40.04
77003;BME280;65939;50.060;14.288;2023-06-01T10:48:53;97303.03;;;27.49;40.83
77003;BME280;65939;50.060;14.288;2023-06-01T10:51:17;97303.28;;;27.37;39.24
77003;BME280;65939;50.060;14.288;2023-06-01T10:53:31;97301.59;;;27.20;39.32
77003;BME280;65939;50.060;14.288;2023-06-01T10:55:31;97311.53;;;27.20;40.36
77003;BME280;65939;50.060;14.288;2023-06-01T10:57:33;97310.47;;;27.26;40.70
77003;BME280;65939;50.060;14.288;2023-06-01T10:59:34;97307.53;;;27.28;39.93
77003;BME280;65939;50.060;14.288;2023-06-01T11:01:40;97305.16;;;27.36;39.51
77003;BME280;65939;50.060;14.288;2023-06-01T11:03:45;97304.13;;;27.53;39.71
77003;BME280;65939;50.060;14.288;2023-06-01T11:05:48;97308.19;;;27.65;40.18
77003;BME280;65939;50.060;14.288;2023-06-01T11:07:50;97299.06;;;27.66;38.89
77003;BME280;65939;50.060;14.288;2023-06-01T11:09:51;97293.72;;;27.72;40.43
77003;BME280;65939;50.060;14.288;2023-06-01T11:14:07;97290.00;;;27.98;40.24